TimeEDT,TemperatureF,Dew PointF,Humidity,Sea Level PressureIn,VisibilityMPH,Wind Direction,Wind SpeedMPH,Gust SpeedMPH,PrecipitationIn,Events,Conditions,WindDirDegrees,DateUTC
12:54 AM,39.0,39.0,100,30.06,-9999.0,North,-9999.0,-,N/A,,Unknown,0,2012-09-25 04:54:00
1:54 AM,37.9,37.9,100,30.07,-9999.0,North,-9999.0,-,N/A,,Unknown,0,2012-09-25 05:54:00
2:54 AM,37.0,37.0,100,30.06,-9999.0,North,-9999.0,-,N/A,,Unknown,0,2012-09-25 06:54:00
3:54 AM,37.0,36.0,96,30.06,-9999.0,North,-9999.0,-,N/A,,Unknown,0,2012-09-25 07:54:00
4:54 AM,36.0,35.1,97,30.06,-9999.0,North,-9999.0,-,N/A,,Unknown,0,2012-09-25 08:54:00
5:54 AM,35.1,35.1,100,30.06,-9999.0,North,-9999.0,-,N/A,,Unknown,0,2012-09-25 09:54:00
6:54 AM,34.0,34.0,100,30.06,-9999.0,North,-9999.0,-,N/A,,Unknown,0,2012-09-25 10:54:00
7:54 AM,37.0,36.0,96,30.06,-9999.0,North,-9999.0,-,N/A,,Unknown,0,2012-09-25 11:54:00
8:54 AM,42.1,39.9,92,30.06,-9999.0,North,-9999.0,-,N/A,,Unknown,0,2012-09-25 12:54:00
9:54 AM,52.0,41.0,66,30.04,-9999.0,North,-9999.0,-,N/A,,Unknown,0,2012-09-25 13:54:00
10:54 AM,55.9,42.1,60,30.03,-9999.0,North,-9999.0,-,N/A,,Unknown,0,2012-09-25 14:54:00
11:54 AM,60.1,43.0,53,30.02,-9999.0,North,-9999.0,-,N/A,,Unknown,0,2012-09-25 15:54:00
12:54 PM,63.0,44.1,50,30.01,-9999.0,North,-9999.0,-,N/A,,Unknown,0,2012-09-25 16:54:00
1:54 PM,66.0,43.0,43,30.00,-9999.0,North,-9999.0,-,N/A,,Unknown,0,2012-09-25 17:54:00
2:54 PM,66.9,44.1,44,30.01,-9999.0,North,-9999.0,-,N/A,,Unknown,0,2012-09-25 18:54:00
3:54 PM,66.9,43.0,42,30.01,-9999.0,North,-9999.0,-,N/A,,Unknown,0,2012-09-25 19:54:00
4:54 PM,68.0,44.1,42,30.01,-9999.0,North,-9999.0,-,N/A,,Unknown,0,2012-09-25 20:54:00
5:54 PM,66.0,44.1,45,30.02,-9999.0,North,-9999.0,-,N/A,,Unknown,0,2012-09-25 21:54:00
6:54 PM,63.0,45.0,52,30.03,-9999.0,North,-9999.0,-,N/A,,Unknown,0,2012-09-25 22:54:00
7:54 PM,59.0,45.0,60,30.05,-9999.0,North,-9999.0,-,N/A,,Unknown,0,2012-09-25 23:54:00
8:54 PM,55.0,46.9,74,30.05,-9999.0,North,-9999.0,-,N/A,,Unknown,0,2012-09-26 00:54:00
9:54 PM,52.0,46.0,80,30.07,-9999.0,North,-9999.0,-,N/A,,Unknown,0,2012-09-26 01:54:00
10:54 PM,48.9,45.0,86,30.06,-9999.0,North,-9999.0,-,N/A,,Unknown,0,2012-09-26 02:54:00
11:54 PM,46.9,43.0,86,30.05,-9999.0,North,-9999.0,-,N/A,,Unknown,0,2012-09-26 03:54:00